CheckWX is a tool to help pilots better visualize weather data.  It is not intended as a substitute for an official pre-flight weather briefing.

21:37:52 UTC

KCMA TAF
Camarillo Airport
Camarillo, California, USA
KCMA 201742Z 2018/2118 27005KT P6SM -SHRA SCT028 BKN070 FM202100 24010KT P6SM -SHRA BKN025 BKN040 FM210300 VRB03KT P6SM VCSH BKN050 FM211000 VRB03KT P6SM VCSH BKN019 FM211600 26005KT P6SM BKN025

Mar-20@
18:00 UTC

Mar-20 @ 18:00 UTC

Mar-20@
21:00 UTC

Mar-20 @ 21:00 UTC

KCMA 201742Z 2018/2118 27005KT P6SM -SHRA SCT028 BKN070

Expired

Wind
  • 270° at 5 KTS
Conditions
Light Rain
Cloud Levels
  • Scattered at 2,800' AGL
  • Broken at 7,000' AGL

Mar-20@
21:00 UTC

Mar-20 @ 21:00 UTC

Mar-21@
03:00 UTC

Mar-21 @ 03:00 UTC

FM202100 24010KT P6SM -SHRA BKN025 BKN040

From

From Standard forecast or significant change

Wind
  • 240° at 10 KTS
Conditions
Light Rain
Cloud Levels
  • Broken at 2,500' AGL
  • Broken at 4,000' AGL

Mar-21@
03:00 UTC

Mar-21 @ 03:00 UTC

Mar-21@
10:00 UTC

Mar-21 @ 10:00 UTC

FM210300 VRB03KT P6SM VCSH BKN050

From

From Standard forecast or significant change

Wind
  • Variable at 3 KTS
Cloud Levels
  • Broken at 5,000' AGL

Mar-21@
10:00 UTC

Mar-21 @ 10:00 UTC

Mar-21@
16:00 UTC

Mar-21 @ 16:00 UTC

FM211000 VRB03KT P6SM VCSH BKN019

From

From Standard forecast or significant change

Wind
  • Variable at 3 KTS
Cloud Levels
  • Broken at 1,900' AGL

Mar-21@
16:00 UTC

Mar-21 @ 16:00 UTC

Mar-21@
18:00 UTC

Mar-21 @ 18:00 UTC

FM211600 26005KT P6SM BKN025

From

From Standard forecast or significant change

Wind
  • 260° at 5 KTS
Cloud Levels
  • Broken at 2,500' AGL